createdAt,value
2022-08-24T00:01:34.333Z,2.80
2022-08-24T00:04:20.173Z,2.80
2022-08-24T00:07:18.007Z,3.10
2022-08-24T00:10:13.741Z,2.25
2022-08-24T00:12:59.406Z,2.92
2022-08-24T00:15:46.018Z,2.63
2022-08-24T00:18:33.462Z,3.15
2022-08-24T00:21:20.532Z,2.63
2022-08-24T00:24:06.774Z,2.22
2022-08-24T00:26:54.015Z,2.05
2022-08-24T00:29:39.804Z,2.22
2022-08-24T00:32:25.627Z,2.33
2022-08-24T00:35:12.484Z,2.13
2022-08-24T00:37:58.250Z,1.90
2022-08-24T00:40:46.990Z,2.03
2022-08-24T00:43:33.203Z,1.75
2022-08-24T00:46:26.371Z,1.70
2022-08-24T00:49:28.811Z,1.27
2022-08-24T00:52:26.328Z,1.45
2022-08-24T00:55:35.965Z,1.60
2022-08-24T00:58:27.984Z,1.60
2022-08-24T01:01:15.013Z,1.88
2022-08-24T01:04:01.143Z,1.73
2022-08-24T01:06:49.864Z,2.03
2022-08-24T01:09:35.550Z,1.98
2022-08-24T01:12:22.721Z,1.67
2022-08-24T01:15:10.533Z,1.52
2022-08-24T01:18:16.312Z,1.50
2022-08-24T01:21:22.755Z,1.65
2022-08-24T01:24:12.842Z,1.88
2022-08-24T01:26:59.637Z,1.60
2022-08-24T01:29:46.892Z,2.33
2022-08-24T01:32:32.382Z,2.30
2022-08-24T01:35:18.141Z,2.30
2022-08-24T01:38:08.669Z,2.38
2022-08-24T01:40:59.751Z,2.90
2022-08-24T01:43:46.308Z,2.75
2022-08-24T01:46:32.424Z,2.40
2022-08-24T01:49:18.442Z,2.72
2022-08-24T01:52:06.774Z,2.92
2022-08-24T01:54:54.606Z,2.70
2022-08-24T01:57:40.632Z,2.72
2022-08-24T02:00:27.535Z,3.17
2022-08-24T02:03:13.727Z,2.83
2022-08-24T02:06:01.112Z,2.92
2022-08-24T02:08:48.452Z,2.97
2022-08-24T02:11:34.690Z,2.90
2022-08-24T02:14:21.552Z,3.08
2022-08-24T02:17:08.616Z,3.08
2022-08-24T02:19:54.654Z,3.30
2022-08-24T02:22:40.479Z,3.15
2022-08-24T02:25:30.233Z,2.78
2022-08-24T02:28:15.928Z,2.70
2022-08-24T02:31:05.926Z,2.78
2022-08-24T02:33:51.627Z,2.30
2022-08-24T02:36:38.822Z,2.30
2022-08-24T02:39:24.650Z,2.40
2022-08-24T02:42:10.590Z,2.00
2022-08-24T02:44:56.357Z,1.70
2022-08-24T02:47:42.390Z,1.73
2022-08-24T02:50:28.114Z,1.65
2022-08-24T02:53:15.593Z,1.60
2022-08-24T02:56:01.262Z,1.70
2022-08-24T02:58:47.749Z,1.40
2022-08-24T03:01:37.912Z,1.73
2022-08-24T03:04:24.088Z,1.70
2022-08-24T03:07:09.953Z,1.75
2022-08-24T03:09:56.541Z,1.83
2022-08-24T03:12:42.569Z,1.83
2022-08-24T03:15:29.130Z,1.70
2022-08-24T03:18:15.974Z,1.60
2022-08-24T03:21:03.383Z,1.80
2022-08-24T03:23:54.292Z,1.70
2022-08-24T03:26:44.061Z,1.58
2022-08-24T03:29:33.725Z,1.90
2022-08-24T03:32:20.536Z,1.70
2022-08-24T03:35:06.889Z,1.70
2022-08-24T03:37:52.762Z,1.67
2022-08-24T03:40:40.023Z,1.60
2022-08-24T03:43:44.671Z,1.50
2022-08-24T03:46:35.641Z,1.70
2022-08-24T03:49:21.986Z,1.52
2022-08-24T03:52:08.606Z,1.98
2022-08-24T03:54:54.583Z,1.70
2022-08-24T03:57:40.488Z,1.67
2022-08-24T04:00:26.096Z,1.58
2022-08-24T04:03:16.697Z,1.50
2022-08-24T04:06:03.290Z,1.67
2022-08-24T04:08:50.168Z,2.22
2022-08-24T04:11:39.473Z,1.90
2022-08-24T04:14:28.019Z,2.03
2022-08-24T04:17:20.056Z,1.90
2022-08-24T04:20:07.597Z,1.67
2022-08-24T04:22:55.184Z,1.60
2022-08-24T04:25:46.646Z,2.05
2022-08-24T04:28:32.912Z,2.40
2022-08-24T04:31:19.102Z,2.35
2022-08-24T04:34:07.615Z,2.42
2022-08-24T04:36:53.485Z,2.40
2022-08-24T04:39:40.098Z,2.25
2022-08-24T04:42:48.286Z,2.20
2022-08-24T04:45:38.193Z,2.40
2022-08-24T04:48:24.980Z,2.35
2022-08-24T04:51:14.059Z,2.45
2022-08-24T04:54:00.458Z,3.08
2022-08-24T04:56:46.211Z,2.30
2022-08-24T04:59:31.997Z,2.50
2022-08-24T05:02:18.381Z,2.42
2022-08-24T05:05:11.377Z,2.25
2022-08-24T05:07:57.061Z,2.10
2022-08-24T05:10:45.898Z,2.47
2022-08-24T05:13:31.473Z,2.50
2022-08-24T05:16:18.409Z,1.70
2022-08-24T05:19:07.152Z,1.50
2022-08-24T05:21:53.110Z,1.48
2022-08-24T05:24:38.965Z,1.60
2022-08-24T05:27:25.213Z,2.10
2022-08-24T05:30:12.499Z,1.48
2022-08-24T05:32:58.245Z,1.70
2022-08-24T05:35:44.652Z,1.70
2022-08-24T05:38:33.309Z,1.80
2022-08-24T05:41:20.109Z,1.92
2022-08-24T05:44:14.211Z,1.35
2022-08-24T05:47:02.791Z,1.42
2022-08-24T05:49:53.056Z,1.40
2022-08-24T05:52:39.848Z,1.50
2022-08-24T05:55:25.747Z,1.20
2022-08-24T05:58:13.107Z,1.30
2022-08-24T06:01:13.198Z,1.42
2022-08-24T06:03:59.908Z,1.45
2022-08-24T06:06:48.682Z,1.63
2022-08-24T06:09:36.350Z,1.15
2022-08-24T06:12:22.666Z,1.80
2022-08-24T06:15:08.809Z,1.10
2022-08-24T06:17:54.897Z,6.28
2022-08-24T06:20:42.765Z,9.50
2022-08-24T06:23:32.329Z,31.50
2022-08-24T06:26:40.739Z,20.15
2022-08-24T06:29:27.388Z,4.53
2022-08-24T06:32:18.053Z,3.50
2022-08-24T06:35:04.123Z,3.30
2022-08-24T06:37:50.287Z,1.95
2022-08-24T06:40:36.153Z,1.65
2022-08-24T06:43:22.833Z,1.27
2022-08-24T06:46:11.256Z,1.80
2022-08-24T06:49:00.193Z,2.35
2022-08-24T06:51:50.438Z,2.00
2022-08-24T06:54:37.706Z,9.55
2022-08-24T06:57:23.465Z,4.07
2022-08-24T07:00:13.689Z,2.00
2022-08-24T07:03:00.393Z,1.60
2022-08-24T07:05:53.871Z,1.83
2022-08-24T07:08:58.509Z,2.90
2022-08-24T07:11:45.061Z,3.75
2022-08-24T07:14:31.207Z,5.32
2022-08-24T07:17:19.165Z,1.90
2022-08-24T07:20:05.836Z,2.00
2022-08-24T07:23:41.366Z,1.92
2022-08-24T07:26:31.483Z,4.30
2022-08-24T07:29:45.744Z,2.15
2022-08-24T07:32:24.682Z,1.95
2022-08-24T07:35:13.970Z,1.40
2022-08-24T07:38:01.092Z,1.95
2022-08-24T07:41:09.357Z,12.07
2022-08-24T07:43:55.020Z,1.83
2022-08-24T07:46:41.805Z,1.20
2022-08-24T07:49:36.844Z,2.42
2022-08-24T07:52:24.774Z,3.90
2022-08-24T07:55:12.179Z,2.38
2022-08-24T07:57:59.582Z,0.85
2022-08-24T08:00:49.343Z,1.42
2022-08-24T08:03:36.204Z,1.25
2022-08-24T08:06:22.166Z,1.40
2022-08-24T08:09:12.490Z,1.40
2022-08-24T08:11:59.975Z,1.50
2022-08-24T08:14:45.817Z,1.85
2022-08-24T08:17:31.940Z,1.30
2022-08-24T08:20:19.454Z,1.38
2022-08-24T08:23:24.894Z,1.23
2022-08-24T08:26:23.100Z,1.65
2022-08-24T08:29:32.456Z,1.40
2022-08-24T08:32:20.173Z,1.58
2022-08-24T08:35:09.098Z,1.60
2022-08-24T08:37:57.926Z,1.40
2022-08-24T08:40:55.333Z,1.50
2022-08-24T08:43:52.609Z,1.50
2022-08-24T08:47:17.713Z,1.35
2022-08-24T08:50:18.811Z,2.20
2022-08-24T08:53:14.230Z,1.25
2022-08-24T08:56:34.561Z,1.50
2022-08-24T08:59:41.148Z,1.02
2022-08-24T09:03:07.152Z,1.60
2022-08-24T09:06:18.126Z,2.53
2022-08-24T09:09:35.196Z,1.80
2022-08-24T09:12:57.155Z,2.20
2022-08-24T09:16:10.634Z,2.97
2022-08-24T09:19:31.888Z,1.30
2022-08-24T09:22:21.381Z,2.00
2022-08-24T09:25:26.612Z,1.60
2022-08-24T09:28:59.526Z,1.50
2022-08-24T09:32:00.758Z,1.90
2022-08-24T09:34:57.169Z,1.80
2022-08-24T09:38:04.930Z,1.88
2022-08-24T09:41:24.911Z,1.95
2022-08-24T09:44:32.021Z,2.10
2022-08-24T09:47:42.566Z,1.40
2022-08-24T09:50:50.439Z,1.20
2022-08-24T09:53:55.700Z,0.95
2022-08-24T09:57:20.002Z,0.80
2022-08-24T10:00:18.457Z,1.13
2022-08-24T10:03:36.124Z,0.90
2022-08-24T10:06:32.830Z,0.90
2022-08-24T10:09:55.652Z,0.90
2022-08-24T10:13:08.893Z,1.37
2022-08-24T10:16:00.902Z,0.90
2022-08-24T10:19:18.233Z,1.30
2022-08-24T10:22:19.775Z,1.10
2022-08-24T10:25:36.313Z,1.35
2022-08-24T10:28:46.941Z,1.10
2022-08-24T10:31:38.885Z,1.13
2022-08-24T10:34:54.256Z,1.03
2022-08-24T10:37:51.939Z,0.90
2022-08-24T10:40:49.407Z,0.80
2022-08-24T10:44:02.937Z,1.00
2022-08-24T10:46:59.750Z,0.90
2022-08-24T10:50:19.977Z,1.05
2022-08-24T10:53:36.578Z,1.00
2022-08-24T10:56:30.283Z,1.10
2022-08-24T10:59:23.805Z,1.00
2022-08-24T11:02:29.208Z,1.02
2022-08-24T11:05:30.154Z,0.80
2022-08-24T11:08:25.121Z,0.90
2022-08-24T11:11:24.897Z,1.08
2022-08-24T11:14:16.781Z,1.23
2022-08-24T11:17:21.195Z,0.90
2022-08-24T11:20:28.157Z,0.80
2022-08-24T11:23:25.506Z,0.90
2022-08-24T11:26:21.348Z,1.10
2022-08-24T11:29:06.949Z,1.10
2022-08-24T11:31:53.258Z,0.80
2022-08-24T11:34:40.077Z,0.98
2022-08-24T11:37:33.689Z,1.15
2022-08-24T11:40:25.128Z,0.80
2022-08-24T11:43:47.941Z,0.80
2022-08-24T11:49:42.394Z,0.98
2022-08-24T11:52:45.258Z,1.15
2022-08-24T11:55:47.235Z,1.00
2022-08-24T11:58:57.177Z,1.13
2022-08-24T12:01:59.036Z,1.10
2022-08-24T12:05:14.331Z,1.15
2022-08-24T12:08:21.211Z,1.13
2022-08-24T12:11:41.872Z,1.02
2022-08-24T12:15:00.344Z,0.90
2022-08-24T12:17:54.372Z,1.27
2022-08-24T12:20:43.593Z,1.10
2022-08-24T12:23:43.421Z,0.90
2022-08-24T12:26:50.265Z,1.00
2022-08-24T12:29:54.562Z,1.30
2022-08-24T12:33:00.891Z,0.80
2022-08-24T12:35:54.205Z,1.20
2022-08-24T12:38:45.927Z,1.10
2022-08-24T12:41:40.288Z,1.38
2022-08-24T12:44:39.127Z,0.93
2022-08-24T12:47:52.556Z,1.13
2022-08-24T12:54:02.263Z,1.17
2022-08-24T12:57:03.401Z,1.15
2022-08-24T12:59:56.636Z,1.02
2022-08-24T13:05:45.844Z,1.00
2022-08-24T13:08:41.221Z,1.10
2022-08-24T13:11:28.606Z,1.23
2022-08-24T13:14:22.062Z,1.52
2022-08-24T13:17:12.211Z,1.20
2022-08-24T13:20:28.664Z,1.25
2022-08-24T13:23:19.968Z,1.10
2022-08-24T13:26:28.936Z,1.02
2022-08-24T13:29:16.480Z,1.20
2022-08-24T13:32:02.792Z,1.10
2022-08-24T13:34:51.073Z,1.45
2022-08-24T13:37:37.217Z,1.10
2022-08-24T13:40:27.874Z,1.15
2022-08-24T13:43:24.602Z,1.20
2022-08-24T13:47:01.290Z,1.42
2022-08-24T13:50:12.085Z,1.17
2022-08-24T13:53:26.235Z,1.02
2022-08-24T13:56:30.295Z,1.10
2022-08-24T13:59:37.229Z,1.20
2022-08-24T14:02:49.827Z,1.15
2022-08-24T14:05:45.868Z,1.60
2022-08-24T14:08:55.444Z,1.20
2022-08-24T14:12:07.897Z,1.05
2022-08-24T14:15:19.347Z,1.20
2022-08-24T14:18:14.702Z,1.20
2022-08-24T14:21:06.220Z,1.05
2022-08-24T14:23:59.988Z,1.00
2022-08-24T14:26:48.793Z,1.20
2022-08-24T14:29:41.024Z,1.20
2022-08-24T14:32:30.197Z,1.13
2022-08-24T14:35:27.936Z,1.05
2022-08-24T14:38:21.284Z,1.30
2022-08-24T14:41:30.511Z,1.30
2022-08-24T14:44:48.247Z,0.93
2022-08-24T14:48:08.147Z,1.00
2022-08-24T14:51:10.843Z,1.30
2022-08-24T14:54:15.425Z,1.25
2022-08-24T14:57:26.034Z,1.15
2022-08-24T15:00:15.363Z,1.08
2022-08-24T15:03:12.068Z,1.25
2022-08-24T15:06:25.766Z,1.10
2022-08-24T15:09:22.437Z,1.20
2022-08-24T15:12:32.315Z,1.00
2022-08-24T15:16:01.068Z,1.02
2022-08-24T15:19:07.495Z,1.20
2022-08-24T15:22:08.237Z,1.00
2022-08-24T15:25:13.498Z,1.13
2022-08-24T15:28:35.876Z,1.30
2022-08-24T15:34:12.254Z,1.20
2022-08-24T15:37:01.838Z,1.10
2022-08-24T15:39:47.534Z,1.20
2022-08-24T15:42:36.891Z,1.35
2022-08-24T15:45:23.459Z,1.10
2022-08-24T15:48:14.268Z,0.98
2022-08-24T15:51:01.158Z,1.20
2022-08-24T15:53:47.837Z,1.30
2022-08-24T15:56:43.565Z,1.30
2022-08-24T15:59:45.752Z,1.30
2022-08-24T16:02:35.810Z,1.25
2022-08-24T16:05:25.466Z,1.05
2022-08-24T16:08:13.539Z,1.13
2022-08-24T16:11:19.204Z,1.00
2022-08-24T16:14:12.072Z,1.15
2022-08-24T16:19:51.349Z,1.35
2022-08-24T16:22:40.589Z,1.02
2022-08-24T16:25:28.853Z,1.10
2022-08-24T16:28:23.785Z,1.08
2022-08-24T16:31:10.812Z,1.13
2022-08-24T16:34:29.132Z,1.45
2022-08-24T16:37:16.273Z,1.10
2022-08-24T16:40:02.158Z,1.02
2022-08-24T16:42:48.613Z,1.25
2022-08-24T16:45:36.213Z,1.40
2022-08-24T16:48:22.263Z,1.33
2022-08-24T16:51:08.080Z,1.30
2022-08-24T16:53:54.162Z,1.10
2022-08-24T16:56:42.155Z,1.10
2022-08-24T16:59:32.001Z,1.40
2022-08-24T17:02:19.605Z,1.08
2022-08-24T17:05:05.689Z,1.38
2022-08-24T17:07:51.779Z,1.58
2022-08-24T17:10:38.215Z,1.00
2022-08-24T17:16:29.659Z,1.13
2022-08-24T17:19:18.668Z,1.20
2022-08-24T17:22:05.611Z,1.00
2022-08-24T17:24:52.922Z,1.10
2022-08-24T17:27:39.066Z,1.20
2022-08-24T17:30:25.999Z,1.20
2022-08-24T17:33:15.586Z,1.02
2022-08-24T17:36:02.034Z,1.10
2022-08-24T17:38:55.104Z,1.30
2022-08-24T17:41:41.677Z,1.00
2022-08-24T17:44:32.018Z,1.00
2022-08-24T17:47:18.912Z,1.00
2022-08-24T17:50:06.365Z,1.10
2022-08-24T17:52:58.909Z,0.90
2022-08-24T17:55:46.597Z,1.08
2022-08-24T17:58:32.696Z,1.00
2022-08-24T18:01:19.001Z,1.33
2022-08-24T18:04:04.802Z,1.58
2022-08-24T18:06:50.460Z,1.00
2022-08-24T18:09:48.446Z,1.33
2022-08-24T18:12:34.353Z,1.58
2022-08-24T18:15:20.518Z,1.40
2022-08-24T18:18:08.892Z,2.30
2022-08-24T18:20:54.806Z,2.47
2022-08-24T18:23:43.617Z,2.17
2022-08-24T18:26:31.452Z,2.00
2022-08-24T18:29:21.622Z,2.58
2022-08-24T18:32:07.849Z,2.70
2022-08-24T18:34:53.430Z,2.10
2022-08-24T18:37:39.324Z,2.45
2022-08-24T18:40:26.864Z,2.42
2022-08-24T18:43:20.418Z,1.95
2022-08-24T18:46:06.955Z,1.77
2022-08-24T18:48:53.597Z,1.90
2022-08-24T18:51:39.666Z,2.03
2022-08-24T18:54:32.479Z,2.00
2022-08-24T18:57:19.224Z,1.80
2022-08-24T19:00:07.633Z,1.92
2022-08-24T19:02:53.716Z,1.75
2022-08-24T19:05:40.122Z,1.40
2022-08-24T19:08:25.737Z,1.60
2022-08-24T19:11:11.520Z,1.50
2022-08-24T19:13:57.979Z,1.77
2022-08-24T19:16:46.532Z,1.40
2022-08-24T19:19:37.324Z,1.50
2022-08-24T19:22:23.441Z,1.65
2022-08-24T19:25:25.774Z,1.70
2022-08-24T19:28:12.040Z,1.80
2022-08-24T19:31:00.932Z,1.30
2022-08-24T19:33:49.905Z,1.55
2022-08-24T19:36:36.014Z,1.42
2022-08-24T19:39:23.577Z,1.88
2022-08-24T19:42:17.696Z,1.60
2022-08-24T19:45:22.843Z,1.80
2022-08-24T19:48:10.046Z,1.90
2022-08-24T19:50:56.518Z,1.63
2022-08-24T19:53:43.052Z,1.85
2022-08-24T19:56:29.041Z,1.77
2022-08-24T19:59:26.788Z,2.05
2022-08-24T20:02:12.608Z,1.70
2022-08-24T20:04:59.545Z,1.50
2022-08-24T20:07:46.390Z,1.95
2022-08-24T20:10:33.836Z,1.60
2022-08-24T20:13:19.914Z,1.60
2022-08-24T20:16:10.454Z,1.75
2022-08-24T20:18:56.656Z,1.60
2022-08-24T20:21:42.782Z,1.70
2022-08-24T20:24:28.908Z,2.08
2022-08-24T20:27:19.422Z,1.42
2022-08-24T20:30:06.972Z,1.65
2022-08-24T20:32:54.047Z,1.70
2022-08-24T20:35:40.265Z,1.85
2022-08-24T20:38:26.754Z,1.70
2022-08-24T20:41:17.558Z,1.90
2022-08-24T20:44:04.292Z,1.92
2022-08-24T20:46:50.259Z,1.80
2022-08-24T20:49:37.029Z,1.60
2022-08-24T20:52:22.594Z,1.58
2022-08-24T20:55:10.899Z,2.10
2022-08-24T20:58:03.398Z,1.70
2022-08-24T21:00:49.589Z,1.50
2022-08-24T21:03:36.855Z,1.98
2022-08-24T21:06:23.527Z,1.65
2022-08-24T21:09:10.494Z,1.85
2022-08-24T21:12:00.966Z,1.50
2022-08-24T21:14:47.052Z,1.50
2022-08-24T21:17:32.655Z,1.42
2022-08-24T21:20:19.256Z,1.75
2022-08-24T21:23:05.635Z,1.40
2022-08-24T21:25:52.257Z,1.27
2022-08-24T21:28:41.584Z,1.50
2022-08-24T21:31:28.529Z,1.63
2022-08-24T21:34:32.755Z,1.70
2022-08-24T21:37:20.224Z,1.58
2022-08-24T21:40:07.571Z,1.60
2022-08-24T21:42:53.344Z,1.42
2022-08-24T21:45:41.302Z,1.67
2022-08-24T21:48:26.985Z,1.38
2022-08-24T21:51:12.424Z,1.60
2022-08-24T21:53:59.625Z,1.58
2022-08-24T21:56:45.638Z,1.70
2022-08-24T21:59:31.396Z,1.60
2022-08-24T22:02:20.717Z,1.67
2022-08-24T22:05:07.054Z,1.40
2022-08-24T22:07:52.869Z,1.52
2022-08-24T22:10:38.690Z,1.75
2022-08-24T22:13:24.390Z,1.30
2022-08-24T22:16:11.607Z,1.10
2022-08-24T22:18:57.545Z,1.58
2022-08-24T22:21:47.890Z,1.63
2022-08-24T22:24:34.065Z,1.25
2022-08-24T22:27:19.521Z,1.50
2022-08-24T22:30:17.146Z,1.58
2022-08-24T22:33:05.005Z,1.70
2022-08-24T22:35:51.772Z,1.77
2022-08-24T22:38:38.307Z,1.50
2022-08-24T22:41:24.675Z,1.38
2022-08-24T22:44:21.567Z,1.75
2022-08-24T22:47:11.953Z,1.60
2022-08-24T22:50:00.584Z,1.40
2022-08-24T22:52:46.090Z,1.23
2022-08-24T22:55:32.553Z,1.50
2022-08-24T22:58:18.336Z,1.50
2022-08-24T23:01:04.370Z,1.30
2022-08-24T23:03:51.256Z,1.38
2022-08-24T23:06:37.374Z,1.15
2022-08-24T23:09:23.435Z,1.40
2022-08-24T23:12:10.436Z,1.08
2022-08-24T23:14:56.171Z,1.17
2022-08-24T23:17:42.851Z,1.17
2022-08-24T23:20:28.589Z,1.10
2022-08-24T23:23:14.527Z,1.00
2022-08-24T23:26:04.021Z,1.30
2022-08-24T23:28:50.347Z,1.27
2022-08-24T23:31:36.726Z,1.10
2022-08-24T23:34:22.932Z,1.25
2022-08-24T23:37:09.186Z,1.10
2022-08-24T23:39:55.285Z,1.20
2022-08-24T23:42:40.896Z,1.40
2022-08-24T23:45:28.327Z,1.20
2022-08-24T23:48:16.290Z,1.10
2022-08-24T23:51:01.740Z,1.33
2022-08-24T23:53:48.695Z,1.10
2022-08-24T23:56:38.404Z,1.20
2022-08-24T23:59:29.305Z,1.17
